createdAt,value
2023-01-27T00:01:52.599Z,-2.73
2023-01-27T00:04:22.608Z,-2.77
2023-01-27T00:06:51.056Z,-2.52
2023-01-27T00:09:19.485Z,-2.41
2023-01-27T00:12:05.719Z,-2.44
2023-01-27T00:14:34.824Z,-2.47
2023-01-27T00:17:03.571Z,-2.47
2023-01-27T00:19:33.695Z,-2.43
2023-01-27T00:22:19.468Z,-2.58
2023-01-27T00:24:49.490Z,-2.52
2023-01-27T00:27:18.367Z,-2.41
2023-01-27T00:29:47.004Z,-2.40
2023-01-27T00:32:32.724Z,-2.40
2023-01-27T00:35:02.483Z,-2.35
2023-01-27T00:37:31.145Z,-2.42
2023-01-27T00:39:59.939Z,-2.34
2023-01-27T00:42:28.502Z,-2.37
2023-01-27T00:45:14.408Z,-2.53
2023-01-27T00:47:43.273Z,-2.55
2023-01-27T00:50:14.112Z,-2.54
2023-01-27T00:52:42.649Z,-2.43
2023-01-27T00:55:12.474Z,-2.44
2023-01-27T00:57:41.033Z,-2.48
2023-01-27T01:00:13.354Z,-2.39
2023-01-27T01:02:42.226Z,-2.35
2023-01-27T01:05:11.057Z,-2.42
2023-01-27T01:07:41.286Z,-2.52
2023-01-27T01:10:12.040Z,-2.48
2023-01-27T01:12:40.787Z,-2.57
2023-01-27T01:15:10.827Z,-2.42
2023-01-27T01:17:40.110Z,-2.52
2023-01-27T01:20:10.136Z,-2.49
2023-01-27T01:22:39.156Z,-2.51
2023-01-27T01:25:10.913Z,-2.45
2023-01-27T01:27:39.295Z,-2.59
2023-01-27T01:30:10.066Z,-2.44
2023-01-27T01:32:38.746Z,-2.42
2023-01-27T01:35:08.233Z,-2.38
2023-01-27T01:37:36.988Z,-2.45
2023-01-27T01:40:06.307Z,-2.47
2023-01-27T01:43:10.271Z,-2.43
2023-01-27T01:45:48.014Z,-2.36
2023-01-27T01:48:22.441Z,-2.42
2023-01-27T01:50:56.509Z,-2.28
2023-01-27T01:53:29.701Z,-2.26
2023-01-27T01:56:00.468Z,-2.29
2023-01-27T01:58:29.997Z,-2.38
2023-01-27T02:01:00.478Z,-2.33
2023-01-27T02:03:31.325Z,-2.42
2023-01-27T02:06:00.373Z,-2.39
2023-01-27T02:08:32.918Z,-2.36
2023-01-27T02:11:01.295Z,-2.43
2023-01-27T02:13:30.275Z,-2.33
2023-01-27T02:16:01.219Z,-2.23
2023-01-27T02:18:31.403Z,-2.28
2023-01-27T02:21:00.619Z,-2.38
2023-01-27T02:23:46.496Z,-2.35
2023-01-27T02:26:22.184Z,-2.37
2023-01-27T02:28:57.509Z,-2.34
2023-01-27T02:31:26.975Z,-2.40
2023-01-27T02:33:59.579Z,-2.44
2023-01-27T02:36:32.160Z,-2.35
2023-01-27T02:39:03.817Z,-2.36
2023-01-27T02:41:37.929Z,-2.32
2023-01-27T02:44:06.913Z,-2.37
2023-01-27T02:46:35.963Z,-2.51
2023-01-27T02:49:04.821Z,-2.40
2023-01-27T02:51:33.737Z,-2.34
2023-01-27T02:54:02.079Z,-2.33
2023-01-27T02:56:30.589Z,-2.33
2023-01-27T02:59:01.000Z,-2.42
2023-01-27T03:01:32.805Z,-2.40
2023-01-27T03:04:02.620Z,-2.40
2023-01-27T03:06:31.667Z,-2.39
2023-01-27T03:09:01.135Z,-2.48
2023-01-27T03:11:46.861Z,-2.45
2023-01-27T03:14:16.773Z,-2.35
2023-01-27T03:17:02.712Z,-2.35
2023-01-27T03:19:31.644Z,-2.28
2023-01-27T03:22:02.260Z,-2.21
2023-01-27T03:24:31.091Z,-2.31
2023-01-27T03:27:00.036Z,-2.35
2023-01-27T03:29:47.632Z,-2.43
2023-01-27T03:32:17.008Z,-2.41
2023-01-27T03:34:45.929Z,-2.42
2023-01-27T03:37:31.782Z,-2.49
2023-01-27T03:40:17.313Z,-2.38
2023-01-27T03:43:03.137Z,-2.34
2023-01-27T03:45:51.119Z,-2.28
2023-01-27T03:48:21.198Z,-2.19
2023-01-27T03:50:53.790Z,-2.24
2023-01-27T03:53:23.205Z,-2.28
2023-01-27T03:55:51.870Z,-2.28
2023-01-27T03:58:22.832Z,-2.41
2023-01-27T04:00:55.229Z,-2.33
2023-01-27T04:03:42.828Z,-2.28
2023-01-27T04:06:30.392Z,-2.35
2023-01-27T04:08:59.645Z,-2.31
2023-01-27T04:11:45.499Z,-2.24
2023-01-27T04:14:14.544Z,-2.23
2023-01-27T04:16:44.976Z,-2.10
2023-01-27T04:19:14.888Z,-2.03
2023-01-27T04:21:43.747Z,-2.13
2023-01-27T04:24:22.466Z,-2.19
2023-01-27T04:26:57.000Z,-2.33
2023-01-27T04:29:27.294Z,-2.37
2023-01-27T04:31:58.917Z,-2.38
2023-01-27T04:34:29.364Z,-2.33
2023-01-27T04:37:00.602Z,-2.34
2023-01-27T04:39:31.546Z,-2.38
2023-01-27T04:42:00.508Z,-2.40
2023-01-27T04:44:29.093Z,-2.31
2023-01-27T04:46:59.738Z,-2.38
2023-01-27T04:49:28.584Z,-2.32
2023-01-27T04:51:57.532Z,-2.29
2023-01-27T04:54:30.392Z,-2.36
2023-01-27T04:57:00.637Z,-2.35
2023-01-27T04:59:29.409Z,-2.44
2023-01-27T05:02:00.251Z,-2.47
2023-01-27T05:04:29.567Z,-2.40
2023-01-27T05:06:58.606Z,-2.36
2023-01-27T05:09:27.260Z,-2.45
2023-01-27T05:11:55.862Z,-2.42
2023-01-27T05:14:24.734Z,-2.39
2023-01-27T05:16:54.326Z,-2.53
2023-01-27T05:19:24.489Z,-2.53
2023-01-27T05:21:53.268Z,-2.50
2023-01-27T05:24:22.171Z,-2.60
2023-01-27T05:26:51.379Z,-2.43
2023-01-27T05:29:22.742Z,-2.39
2023-01-27T05:31:52.017Z,-2.36
2023-01-27T05:34:21.219Z,-2.44
2023-01-27T05:36:52.046Z,-2.42
2023-01-27T05:39:34.369Z,-2.49
2023-01-27T05:42:03.269Z,-2.61
2023-01-27T05:44:32.173Z,-2.57
2023-01-27T05:47:00.896Z,-2.50
2023-01-27T05:49:29.767Z,-2.42
2023-01-27T05:52:01.650Z,-2.47
2023-01-27T05:54:32.752Z,-2.46
2023-01-27T05:57:01.429Z,-2.49
2023-01-27T05:59:30.604Z,-2.49
2023-01-27T06:02:07.558Z,-2.44
2023-01-27T06:04:36.515Z,-2.52
2023-01-27T06:07:07.149Z,-2.49
2023-01-27T06:09:35.847Z,-2.51
2023-01-27T06:12:04.736Z,-2.50
2023-01-27T06:14:36.372Z,-2.38
2023-01-27T06:17:13.661Z,-2.43
2023-01-27T06:19:43.882Z,-2.37
2023-01-27T06:22:14.541Z,-2.43
2023-01-27T06:24:42.816Z,-2.44
2023-01-27T06:27:11.774Z,-2.45
2023-01-27T06:29:41.859Z,-2.44
2023-01-27T06:32:10.727Z,-2.45
2023-01-27T06:34:39.273Z,-2.48
2023-01-27T06:37:08.183Z,-2.52
2023-01-27T06:39:39.278Z,-2.47
2023-01-27T06:42:11.135Z,-2.49
2023-01-27T06:44:39.824Z,-2.54
2023-01-27T06:47:09.740Z,-2.38
2023-01-27T06:49:42.257Z,-2.43
2023-01-27T06:52:13.571Z,-2.39
2023-01-27T06:54:43.697Z,-2.37
2023-01-27T06:57:15.264Z,-2.49
2023-01-27T06:59:45.800Z,-2.32
2023-01-27T07:02:14.310Z,-2.37
2023-01-27T07:04:43.575Z,-2.51
2023-01-27T07:07:14.453Z,-2.54
2023-01-27T07:09:52.745Z,-2.48
2023-01-27T07:12:21.800Z,-2.51
2023-01-27T07:14:51.065Z,-2.51
2023-01-27T07:17:33.194Z,-2.46
2023-01-27T07:20:02.344Z,-2.42
2023-01-27T07:22:33.182Z,-2.29
2023-01-27T07:25:04.179Z,-2.26
2023-01-27T07:27:33.270Z,-2.37
2023-01-27T07:30:10.286Z,-2.26
2023-01-27T07:32:39.435Z,-2.39
2023-01-27T07:35:08.855Z,-2.17
2023-01-27T07:37:38.459Z,-2.29
2023-01-27T07:40:11.478Z,-2.22
2023-01-27T07:42:40.464Z,-2.17
2023-01-27T07:45:11.989Z,-2.11
2023-01-27T07:47:41.857Z,-2.16
2023-01-27T07:50:21.695Z,-2.15
2023-01-27T07:52:50.453Z,-2.05
2023-01-27T07:55:23.048Z,-2.17
2023-01-27T07:57:54.748Z,-2.09
2023-01-27T08:00:23.951Z,-2.11
2023-01-27T08:02:53.124Z,-2.02
2023-01-27T08:05:27.293Z,-2.04
2023-01-27T08:07:58.788Z,-2.01
2023-01-27T08:10:29.190Z,-2.12
2023-01-27T08:12:57.819Z,-2.13
2023-01-27T08:15:35.178Z,-2.09
2023-01-27T08:18:04.262Z,-2.17
2023-01-27T08:20:32.962Z,-2.08
2023-01-27T08:23:05.863Z,-1.94
2023-01-27T08:25:37.165Z,-1.92
2023-01-27T08:28:05.827Z,-1.74
2023-01-27T08:30:34.582Z,-1.75
2023-01-27T08:33:02.982Z,-1.74
2023-01-27T08:35:31.237Z,-1.67
2023-01-27T08:38:00.585Z,-1.73
2023-01-27T08:40:29.049Z,-1.81
2023-01-27T08:43:00.491Z,-1.81
2023-01-27T08:45:28.965Z,-1.58
2023-01-27T08:47:57.633Z,-1.62
2023-01-27T08:50:26.220Z,-1.69
2023-01-27T08:52:55.138Z,-1.66
2023-01-27T08:55:23.945Z,-1.36
2023-01-27T08:57:52.457Z,-1.39
2023-01-27T09:00:23.290Z,-1.50
2023-01-27T09:02:54.132Z,-1.70
2023-01-27T09:05:24.802Z,-1.61
2023-01-27T09:07:53.221Z,-1.64
2023-01-27T09:10:21.989Z,-1.60
2023-01-27T09:12:50.435Z,-1.58
2023-01-27T09:15:19.067Z,-1.66
2023-01-27T09:17:49.037Z,-1.69
2023-01-27T09:20:18.653Z,-1.69
2023-01-27T09:22:47.345Z,-1.83
2023-01-27T09:25:17.788Z,-1.91
2023-01-27T09:27:46.349Z,-1.88
2023-01-27T09:30:17.176Z,-1.68
2023-01-27T09:32:45.767Z,-1.43
2023-01-27T09:35:15.881Z,-1.62
2023-01-27T09:37:48.794Z,-1.73
2023-01-27T09:40:32.235Z,-1.61
2023-01-27T09:43:30.338Z,-1.51
2023-01-27T09:46:25.287Z,-1.58
2023-01-27T09:49:30.196Z,-1.51
2023-01-27T09:52:12.147Z,-1.54
2023-01-27T09:55:00.014Z,-1.43
2023-01-27T09:57:40.062Z,-1.42
2023-01-27T10:00:43.309Z,-1.70
2023-01-27T10:03:31.423Z,-1.61
2023-01-27T10:06:32.113Z,-1.37
2023-01-27T10:09:28.513Z,-1.26
2023-01-27T10:12:04.056Z,-1.27
2023-01-27T10:14:40.698Z,-1.26
2023-01-27T10:17:21.805Z,-1.20
2023-01-27T10:20:01.527Z,-1.50
2023-01-27T10:22:43.735Z,-1.28
2023-01-27T10:25:27.068Z,-1.11
2023-01-27T10:27:59.046Z,-1.11
2023-01-27T10:30:37.457Z,-1.23
2023-01-27T10:33:16.323Z,-1.19
2023-01-27T10:35:52.120Z,-1.03
2023-01-27T10:38:32.287Z,-0.95
2023-01-27T10:41:13.645Z,-1.22
2023-01-27T10:43:54.815Z,-1.20
2023-01-27T10:46:32.499Z,-0.91
2023-01-27T10:49:08.848Z,-1.03
2023-01-27T10:51:42.957Z,-1.20
2023-01-27T10:54:15.777Z,-1.09
2023-01-27T10:56:52.426Z,-1.14
2023-01-27T10:59:27.300Z,-0.86
2023-01-27T11:02:02.291Z,-0.80
2023-01-27T11:04:39.435Z,-0.78
2023-01-27T11:07:08.698Z,-0.61
2023-01-27T11:09:45.383Z,-0.97
2023-01-27T11:12:16.715Z,-1.04
2023-01-27T11:14:48.081Z,-1.06
2023-01-27T11:17:24.344Z,-0.87
2023-01-27T11:20:00.353Z,-1.01
2023-01-27T11:22:44.496Z,-0.91
2023-01-27T11:25:18.670Z,-0.82
2023-01-27T11:28:07.721Z,-0.89
2023-01-27T11:30:44.250Z,-0.91
2023-01-27T11:33:23.815Z,-0.92
2023-01-27T11:35:55.396Z,-0.79
2023-01-27T11:38:25.691Z,-0.97
2023-01-27T11:40:58.630Z,-1.06
2023-01-27T11:43:34.824Z,-1.16
2023-01-27T11:46:06.356Z,-1.13
2023-01-27T11:48:41.458Z,-1.01
2023-01-27T11:51:21.710Z,-0.91
2023-01-27T11:53:54.971Z,-0.99
2023-01-27T11:56:27.474Z,-0.96
2023-01-27T11:59:06.509Z,-0.96
2023-01-27T12:01:45.836Z,-0.96
2023-01-27T12:04:20.484Z,-0.78
2023-01-27T12:06:54.694Z,-1.12
2023-01-27T12:09:45.573Z,-1.03
2023-01-27T12:12:23.589Z,-1.01
2023-01-27T12:14:55.979Z,-1.06
2023-01-27T12:17:34.462Z,-1.05
2023-01-27T12:20:16.053Z,-0.99
2023-01-27T12:22:48.655Z,-0.92
2023-01-27T12:25:21.665Z,-0.82
2023-01-27T12:27:54.555Z,-0.93
2023-01-27T12:30:35.158Z,-0.74
2023-01-27T12:33:27.280Z,-0.79
2023-01-27T12:36:02.864Z,-0.79
2023-01-27T12:38:37.266Z,-0.86
2023-01-27T12:41:08.827Z,-0.87
2023-01-27T12:43:55.080Z,-1.03
2023-01-27T12:46:28.449Z,-0.97
2023-01-27T12:49:06.724Z,-0.96
2023-01-27T12:51:41.528Z,-0.83
2023-01-27T12:54:21.936Z,-0.80
2023-01-27T12:56:50.794Z,-0.75
2023-01-27T12:59:21.858Z,-0.94
2023-01-27T13:02:03.519Z,-0.76
2023-01-27T13:04:32.834Z,-0.86
2023-01-27T13:07:08.322Z,-1.08
2023-01-27T13:09:41.570Z,-0.86
2023-01-27T13:12:20.873Z,-0.82
2023-01-27T13:14:53.343Z,-0.77
2023-01-27T13:17:38.956Z,-0.88
2023-01-27T13:20:19.147Z,-0.71
2023-01-27T13:22:51.083Z,-0.76
2023-01-27T13:25:25.760Z,-0.71
2023-01-27T13:27:59.995Z,-0.83
2023-01-27T13:30:37.109Z,-0.64
2023-01-27T13:33:24.883Z,-0.66
2023-01-27T13:36:02.831Z,-0.66
2023-01-27T13:38:40.526Z,-0.65
2023-01-27T13:41:17.849Z,-0.68
2023-01-27T13:43:57.454Z,-0.67
2023-01-27T13:46:36.601Z,-0.75
2023-01-27T13:49:19.163Z,-0.73
2023-01-27T13:51:47.358Z,-0.60
2023-01-27T13:54:18.072Z,-0.55
2023-01-27T13:57:04.433Z,-0.40
2023-01-27T13:59:44.909Z,-0.42
2023-01-27T14:02:41.135Z,-0.35
2023-01-27T14:05:31.371Z,-0.38
2023-01-27T14:08:15.022Z,-0.46
2023-01-27T14:10:58.654Z,-0.35
2023-01-27T14:13:42.861Z,-0.51
2023-01-27T14:16:15.782Z,-0.65
2023-01-27T14:18:50.725Z,-0.63
2023-01-27T14:21:44.131Z,-0.60
2023-01-27T14:24:37.586Z,-0.76
2023-01-27T14:27:13.035Z,-0.73
2023-01-27T14:29:48.501Z,-0.64
2023-01-27T14:32:26.649Z,-0.64
2023-01-27T14:35:20.143Z,-0.66
2023-01-27T14:37:57.846Z,-0.66
2023-01-27T14:40:31.571Z,-0.83
2023-01-27T14:43:16.090Z,-0.65
2023-01-27T14:45:59.153Z,-0.62
2023-01-27T14:48:45.949Z,-0.62
2023-01-27T14:51:26.630Z,-0.91
2023-01-27T14:54:19.704Z,-0.82
2023-01-27T14:57:11.562Z,-0.81
2023-01-27T14:59:51.759Z,-0.87
2023-01-27T15:02:41.023Z,-0.95
2023-01-27T15:05:16.321Z,-0.87
2023-01-27T15:07:52.874Z,-0.86
2023-01-27T15:10:35.786Z,-0.83
2023-01-27T15:13:40.518Z,-0.88
2023-01-27T15:16:32.636Z,-0.91
2023-01-27T15:19:32.142Z,-0.87
2023-01-27T15:22:31.454Z,-0.98
2023-01-27T15:25:22.029Z,-0.82
2023-01-27T15:28:01.684Z,-0.86
2023-01-27T15:30:31.936Z,-0.90
2023-01-27T15:33:02.386Z,-0.94
2023-01-27T15:35:39.118Z,-0.83
2023-01-27T15:38:22.047Z,-0.90
2023-01-27T15:41:13.348Z,-0.89
2023-01-27T15:44:15.495Z,-0.95
2023-01-27T15:46:56.253Z,-0.90
2023-01-27T15:49:29.909Z,-0.91
2023-01-27T15:52:12.735Z,-0.93
2023-01-27T15:54:45.214Z,-0.89
2023-01-27T15:57:31.609Z,-0.94
2023-01-27T16:00:07.055Z,-0.92
2023-01-27T16:02:40.603Z,-0.91
2023-01-27T16:05:20.852Z,-0.97
2023-01-27T16:07:54.065Z,-1.01
2023-01-27T16:10:26.319Z,-0.97
2023-01-27T16:13:20.681Z,-1.02
2023-01-27T16:16:11.974Z,-0.95
2023-01-27T16:18:47.001Z,-0.97
2023-01-27T16:21:35.740Z,-1.03
2023-01-27T16:24:14.637Z,-1.04
2023-01-27T16:26:47.922Z,-1.04
2023-01-27T16:29:30.379Z,-1.14
2023-01-27T16:32:05.305Z,-1.09
2023-01-27T16:34:39.801Z,-1.16
2023-01-27T16:37:23.078Z,-1.04
2023-01-27T16:39:58.907Z,-1.05
2023-01-27T16:42:33.835Z,-1.19
2023-01-27T16:45:05.345Z,-1.14
2023-01-27T16:47:43.240Z,-1.04
2023-01-27T16:50:34.290Z,-1.10
2023-01-27T16:53:06.711Z,-1.02
2023-01-27T16:55:37.313Z,-1.08
2023-01-27T16:58:06.796Z,-1.06
2023-01-27T17:00:37.624Z,-1.02
2023-01-27T17:03:24.808Z,-1.15
2023-01-27T17:05:56.959Z,-1.12
2023-01-27T17:08:27.880Z,-1.14
2023-01-27T17:10:59.811Z,-1.14
2023-01-27T17:13:30.859Z,-1.23
2023-01-27T17:16:01.023Z,-1.17
2023-01-27T17:18:52.241Z,-1.14
2023-01-27T17:21:31.112Z,-1.17
2023-01-27T17:24:05.831Z,-1.12
2023-01-27T17:26:35.725Z,-1.30
2023-01-27T17:29:07.545Z,-1.25
2023-01-27T17:31:39.711Z,-1.15
2023-01-27T17:34:16.835Z,-1.14
2023-01-27T17:37:23.550Z,-1.15
2023-01-27T17:39:56.428Z,-1.26
2023-01-27T17:42:27.615Z,-1.24
2023-01-27T17:44:58.142Z,-1.27
2023-01-27T17:47:26.909Z,-1.28
2023-01-27T17:49:56.755Z,-1.26
2023-01-27T17:52:27.678Z,-1.23
2023-01-27T17:54:57.053Z,-1.20
2023-01-27T17:57:32.521Z,-1.16
2023-01-27T18:00:05.224Z,-1.24
2023-01-27T18:02:36.915Z,-1.26
2023-01-27T18:05:15.882Z,-1.25
2023-01-27T18:07:47.219Z,-1.27
2023-01-27T18:10:25.665Z,-1.29
2023-01-27T18:12:55.316Z,-1.29
2023-01-27T18:15:42.953Z,-1.29
2023-01-27T18:18:27.338Z,-1.28
2023-01-27T18:21:14.781Z,-1.32
2023-01-27T18:23:45.774Z,-1.29
2023-01-27T18:26:21.558Z,-1.29
2023-01-27T18:28:53.394Z,-1.34
2023-01-27T18:31:24.845Z,-1.33
2023-01-27T18:34:03.623Z,-1.38
2023-01-27T18:36:36.481Z,-1.30
2023-01-27T18:39:25.985Z,-1.32
2023-01-27T18:41:55.987Z,-1.34
2023-01-27T18:44:27.435Z,-1.33
2023-01-27T18:47:01.409Z,-1.32
2023-01-27T18:49:35.160Z,-1.30
2023-01-27T18:52:12.807Z,-1.30
2023-01-27T18:54:41.528Z,-1.26
2023-01-27T18:57:11.637Z,-1.25
2023-01-27T18:59:40.401Z,-1.27
2023-01-27T19:02:16.560Z,-1.25
2023-01-27T19:04:45.856Z,-1.26
2023-01-27T19:07:18.118Z,-1.25
2023-01-27T19:09:47.994Z,-1.25
2023-01-27T19:12:19.172Z,-1.22
2023-01-27T19:14:49.071Z,-1.17
2023-01-27T19:17:20.356Z,-1.24
2023-01-27T19:19:50.542Z,-1.16
2023-01-27T19:22:21.530Z,-1.21
2023-01-27T19:24:50.790Z,-1.23
2023-01-27T19:27:20.819Z,-1.19
2023-01-27T19:29:51.948Z,-1.21
2023-01-27T19:32:23.404Z,-1.20
2023-01-27T19:34:53.275Z,-1.15
2023-01-27T19:37:23.291Z,-1.15
2023-01-27T19:39:54.860Z,-1.12
2023-01-27T19:42:23.282Z,-1.09
2023-01-27T19:44:51.884Z,-1.15
2023-01-27T19:47:20.355Z,-1.24
2023-01-27T19:49:52.333Z,-1.12
2023-01-27T19:52:28.366Z,-1.24
2023-01-27T19:54:58.622Z,-1.11
2023-01-27T19:57:31.031Z,-1.11
2023-01-27T19:59:59.473Z,-1.05
2023-01-27T20:02:27.926Z,-1.10
2023-01-27T20:04:56.369Z,-1.06
2023-01-27T20:07:26.519Z,-1.05
2023-01-27T20:09:55.365Z,-1.08
2023-01-27T20:12:28.636Z,-1.03
2023-01-27T20:14:57.332Z,-1.04
2023-01-27T20:17:27.850Z,-1.08
2023-01-27T20:19:56.009Z,-1.01
2023-01-27T20:22:26.771Z,-1.03
2023-01-27T20:24:57.225Z,-1.01
2023-01-27T20:27:27.349Z,-0.96
2023-01-27T20:29:55.732Z,-0.95
2023-01-27T20:32:25.787Z,-0.93
2023-01-27T20:34:54.746Z,-0.95
2023-01-27T20:37:22.973Z,-0.86
2023-01-27T20:39:54.475Z,-0.88
2023-01-27T20:42:22.740Z,-0.83
2023-01-27T20:44:52.573Z,-0.88
2023-01-27T20:47:28.481Z,-0.87
2023-01-27T20:49:57.076Z,-0.92
2023-01-27T20:52:30.446Z,-0.86
2023-01-27T20:55:01.927Z,-0.77
2023-01-27T20:57:31.344Z,-0.80
2023-01-27T21:00:02.939Z,-0.81
2023-01-27T21:02:31.779Z,-0.76
2023-01-27T21:05:02.116Z,-0.78
2023-01-27T21:07:30.704Z,-0.75
2023-01-27T21:10:04.917Z,-0.80
2023-01-27T21:12:33.709Z,-0.77
2023-01-27T21:15:15.278Z,-0.74
2023-01-27T21:17:45.098Z,-0.78
2023-01-27T21:20:14.109Z,-0.71
2023-01-27T21:22:43.859Z,-0.84
2023-01-27T21:25:12.857Z,-0.66
2023-01-27T21:27:42.192Z,-0.65
2023-01-27T21:30:14.524Z,-0.64
2023-01-27T21:32:52.328Z,-0.65
2023-01-27T21:35:21.283Z,-0.63
2023-01-27T21:37:52.067Z,-0.74
2023-01-27T21:40:22.652Z,-0.65
2023-01-27T21:43:08.106Z,-0.66
2023-01-27T21:45:39.997Z,-0.69
2023-01-27T21:48:09.057Z,-0.69
2023-01-27T21:50:38.741Z,-0.68
2023-01-27T21:53:12.718Z,-0.74
2023-01-27T21:55:41.403Z,-0.64
2023-01-27T21:58:10.091Z,-0.72
2023-01-27T22:00:40.269Z,-0.69
2023-01-27T22:03:08.533Z,-0.73
2023-01-27T22:05:39.218Z,-0.67
2023-01-27T22:08:08.612Z,-0.65
2023-01-27T22:10:37.102Z,-0.65
2023-01-27T22:13:08.961Z,-0.64
2023-01-27T22:15:37.625Z,-0.67
2023-01-27T22:18:09.267Z,-0.65
2023-01-27T22:20:38.157Z,-0.61
2023-01-27T22:23:06.353Z,-0.64
2023-01-27T22:25:34.509Z,-0.64
2023-01-27T22:28:03.837Z,-0.59
2023-01-27T22:30:32.800Z,-0.57
2023-01-27T22:33:03.981Z,-0.53
2023-01-27T22:35:35.952Z,-0.58
2023-01-27T22:38:04.543Z,-0.61
2023-01-27T22:40:32.847Z,-0.67
2023-01-27T22:43:09.890Z,-0.65
2023-01-27T22:45:39.748Z,-0.60
2023-01-27T22:48:11.005Z,-0.59
2023-01-27T22:50:42.084Z,-0.61
2023-01-27T22:53:12.317Z,-0.64
2023-01-27T22:55:51.396Z,-0.63
2023-01-27T22:58:22.772Z,-0.64
2023-01-27T23:00:51.140Z,-0.66
2023-01-27T23:03:21.555Z,-0.56
2023-01-27T23:05:51.627Z,-0.58
2023-01-27T23:08:20.891Z,-0.55
2023-01-27T23:10:51.896Z,-0.65
2023-01-27T23:13:20.724Z,-0.59
2023-01-27T23:15:49.048Z,-0.55
2023-01-27T23:18:17.692Z,-0.63
2023-01-27T23:20:46.082Z,-0.59
2023-01-27T23:23:16.872Z,-0.58
2023-01-27T23:25:50.684Z,-0.61
2023-01-27T23:28:33.584Z,-0.50
2023-01-27T23:31:02.061Z,-0.54
2023-01-27T23:33:36.345Z,-0.56
2023-01-27T23:36:07.443Z,-0.51
2023-01-27T23:38:45.082Z,-0.48
2023-01-27T23:41:28.002Z,-0.42
2023-01-27T23:43:58.268Z,-0.55
2023-01-27T23:46:27.081Z,-0.62
2023-01-27T23:48:57.148Z,-0.61
2023-01-27T23:51:25.563Z,-0.61
2023-01-27T23:53:56.037Z,-0.66
2023-01-27T23:56:24.520Z,-0.68
2023-01-27T23:58:53.945Z,-0.68
